Paulatuk, Northwest Territories

5:39 PM MST on February 09, 2016 (GMT -0700)
Paulatuk | | Change Station
CLOSE
Current Station
Airport
Location: Paulatuk Airport,
Elevation: 20 ft
Nearby Weather Stations

Elev 20 ft 69.36 °N, 124.07 °W | Updated 39 minutes ago

Clear
Clear
-27 °F
Feels Like -27 °F
N
0
Wind Variable Wind from North

Today
High -- | Low -- °F
--% Chance of Precip.
Yesterday
High -- | Low -- °F
Precip. -- in
Pressure 30.68 in
Visibility 15.0 miles
Clouds Clear
Dew Point -33 °F
Humidity 75%
Rainfall 0.00 in
Snow Depth Not available.
10:13 AM 4:48 PM
Waxing Crescent, 3% visible
METAR CYPC 100000Z 00000KT 15SM SKC M33/M36 A3067 RMK -31.8/-34.6/0/AFT18Z/31 MEDIUM PACK/LAST OBS/NXT/101400Z SLP387 DENSITY ALT MISG
Pressure 30.68 in
Visibility 15.0 miles
Clouds Clear
Dew Point -33 °F
Humidity 75%
Rainfall 0.00 in
Snow Depth Not available.
10:13 AM 4:48 PM
Waxing Crescent, 3% visible
METAR CYPC 100000Z 00000KT 15SM SKC M33/M36 A3067 RMK -31.8/-34.6/0/AFT18Z/31 MEDIUM PACK/LAST OBS/NXT/101400Z SLP387 DENSITY ALT MISG

10-Day Weather Forecast

No radar image for this location.
×

Almanac

Astronomy

Feb. 09, 2016 Rise Set
Actual Time
Civil Twilight
Nautical Twilight
Astronomical Twilight
Moon
Length of Visible Light
Length of Day
Tomorrow will be .
, % of the Moon is Illuminated

Today's Extremes

Country Highs Country Lows

Community

WunderPhotos

Upload Photos

1,891,751 photos uploaded!

WunderBlog® & News

Nearby

Air Quality

  Air Quality AQ Index Pollutant
Not available.

Snow Depth

Station Depth Elevation

Earthquake Activity

City Distance Mag. Time & Date
Minimum magnitude displayed is 2.5.

Coastal Water Temperatures

Place Temperature

Stations

Nearby Weather Stations

Station Location Temp. Windchill Dew Point Humidity Wind Precip. Elev Updated Type
                   

Watches & Warnings

There are currently no watches in effect.